Time;durP1;ratioP1;P1;durP2;ratioP2;P2;SDS_P1;SDS_P2;PMS_P1;PMS_P2;Temp;Humidity;BMP_temperature;BMP_pressure;BME280_temperature;BME280_humidity;BME280_pressure;Samples;Min_cycle;Max_cycle;Signal;HPM_P1;HPM_P2
2021/11/15 00:00:33;;;;;;;11.83;7.87;;;8.80;99.90;;;;;;5069807;28;20446;-74
2021/11/15 00:02:59;;;;;;;14.60;8.47;;;8.80;99.90;;;;;;5067243;28;20239;-74
2021/11/15 00:05:25;;;;;;;12.87;8.80;;;8.80;99.90;;;;;;5070177;28;20457;-74
2021/11/15 00:07:51;;;;;;;14.30;9.63;;;8.80;99.90;;;;;;5069424;28;20817;-74
2021/11/15 00:10:17;;;;;;;16.10;9.70;;;8.80;99.90;;;;;;5068161;28;20469;-74
2021/11/15 00:12:46;;;;;;;17.90;9.23;;;8.80;99.90;;;;;;5068581;28;20247;-73
2021/11/15 00:15:12;;;;;;;15.40;9.97;;;8.80;99.90;;;;;;5068200;28;20453;-73
2021/11/15 00:17:38;;;;;;;16.50;9.67;;;8.80;99.90;;;;;;5051604;28;20457;-73
2021/11/15 00:20:06;;;;;;;14.87;9.27;;;8.80;99.90;;;;;;5068502;28;20522;-74
2021/11/15 00:22:32;;;;;;;16.70;9.87;;;8.80;99.90;;;;;;5085732;28;20219;-73
2021/11/15 00:24:57;;;;;;;18.27;10.53;;;8.80;99.90;;;;;;5067763;28;20525;-74
2021/11/15 00:27:23;;;;;;;17.10;9.60;;;8.80;99.90;;;;;;5068816;28;20604;-74
2021/11/15 00:29:49;;;;;;;16.03;9.90;;;8.80;99.90;;;;;;5069088;28;20222;-74
2021/11/15 00:32:14;;;;;;;18.37;11.40;;;8.80;99.90;;;;;;5067896;28;20211;-73
2021/11/15 00:34:40;;;;;;;17.70;9.60;;;8.80;99.90;;;;;;5068424;28;20298;-74
2021/11/15 00:37:06;;;;;;;13.93;8.70;;;8.80;99.90;;;;;;5068208;28;20280;-72
2021/11/15 00:39:31;;;;;;;15.13;9.77;;;8.80;99.90;;;;;;5068840;28;20281;-74
2021/11/15 00:41:57;;;;;;;17.43;9.47;;;8.80;99.90;;;;;;5068307;28;20219;-74
2021/11/15 00:44:23;;;;;;;13.70;9.37;;;8.80;99.90;;;;;;5068481;28;20688;-74
2021/11/15 00:46:49;;;;;;;14.03;9.83;;;8.80;99.90;;;;;;5068796;28;20260;-74
2021/11/15 00:49:14;;;;;;;16.83;9.20;;;8.80;99.90;;;;;;5068373;28;20219;-73
2021/11/15 00:51:40;;;;;;;14.07;9.03;;;8.80;99.90;;;;;;5068198;28;20230;-73
2021/11/15 00:54:06;;;;;;;15.00;9.30;;;8.80;99.90;;;;;;5051440;28;20277;-73
2021/11/15 00:56:31;;;;;;;16.90;9.60;;;8.80;99.90;;;;;;5068254;28;20273;-71
2021/11/15 00:58:57;;;;;;;13.77;8.80;;;8.80;99.90;;;;;;5068442;28;20250;-74
2021/11/15 01:01:23;;;;;;;16.20;10.60;;;8.80;99.90;;;;;;5068846;28;20280;-75
2021/11/15 01:03:49;;;;;;;14.80;8.93;;;8.80;99.90;;;;;;5050868;28;20250;-73
2021/11/15 01:06:15;;;;;;;13.63;9.50;;;8.80;99.90;;;;;;5067829;28;20520;-74
2021/11/15 01:08:42;;;;;;;19.53;10.30;;;8.80;99.90;;;;;;5068697;28;20903;-74
2021/11/15 01:11:07;;;;;;;17.30;10.60;;;8.80;99.90;;;;;;5051182;28;20292;-73
2021/11/15 01:13:34;;;;;;;17.13;9.17;;;8.80;99.90;;;;;;5067774;28;20469;-74
2021/11/15 01:16:00;;;;;;;16.30;9.70;;;8.80;99.90;;;;;;5051229;28;20292;-74
2021/11/15 01:18:26;;;;;;;18.10;9.50;;;8.80;99.90;;;;;;5067734;28;20457;-73
2021/11/15 01:20:52;;;;;;;13.50;9.27;;;8.80;99.90;;;;;;5069794;28;20468;-74
2021/11/15 01:23:19;;;;;;;18.53;10.43;;;8.80;99.90;;;;;;5067640;28;20446;-74
2021/11/15 01:25:46;;;;;;;13.07;8.60;;;8.80;99.90;;;;;;5068671;28;20540;-74
2021/11/15 01:28:12;;;;;;;19.63;10.57;;;8.80;99.90;;;;;;5068629;28;20457;-74
2021/11/15 01:30:38;;;;;;;16.20;9.70;;;8.80;99.90;;;;;;5072177;28;20526;-72
2021/11/15 01:33:04;;;;;;;15.80;10.43;;;8.80;99.90;;;;;;5071385;28;20231;-74
2021/11/15 01:35:30;;;;;;;13.90;9.47;;;8.80;99.90;;;;;;5055654;28;20442;-74
2021/11/15 01:37:56;;;;;;;13.90;8.37;;;8.70;99.90;;;;;;5070776;28;20460;-75
2021/11/15 01:40:25;;;;;;;16.97;10.07;;;8.80;99.90;;;;;;5072205;28;20225;-74
2021/11/15 01:42:52;;;;;;;12.80;8.40;;;8.80;99.90;;;;;;5055103;28;20309;-74
2021/11/15 01:45:23;;;;;;;11.97;8.60;;;8.80;99.90;;;;;;5054265;28;20451;-74
2021/11/15 01:47:51;;;;;;;12.97;8.60;;;8.70;99.90;;;;;;5054825;28;20545;-72
2021/11/15 01:50:17;;;;;;;13.93;8.80;;;8.80;99.90;;;;;;5071295;28;20462;-74
2021/11/15 01:52:44;;;;;;;14.93;9.47;;;8.70;99.90;;;;;;5071561;28;20458;-73
2021/11/15 01:55:10;;;;;;;14.10;8.63;;;8.70;99.90;;;;;;5062166;28;20749;-74
2021/11/15 01:57:36;;;;;;;14.60;8.93;;;8.70;99.90;;;;;;5055347;28;20540;-73
2021/11/15 02:00:09;;;;;;;14.33;8.50;;;8.70;99.90;;;;;;5070236;28;20219;-74
2021/11/15 02:02:38;;;;;;;14.17;8.37;;;8.70;99.90;;;;;;5071550;28;20970;-74
2021/11/15 02:05:04;;;;;;;14.40;9.30;;;8.70;99.90;;;;;;5071384;28;20450;-74
2021/11/15 02:07:30;;;;;;;15.33;9.83;;;8.70;99.90;;;;;;5071730;28;20499;-71
2021/11/15 02:09:56;;;;;;;12.20;8.50;;;8.70;99.90;;;;;;5070232;28;20461;-74
2021/11/15 02:12:22;;;;;;;15.00;8.33;;;8.70;99.90;;;;;;5071157;28;20218;-74
2021/11/15 02:14:47;;;;;;;13.13;8.37;;;8.70;99.90;;;;;;5071335;28;20733;-74
2021/11/15 02:17:13;;;;;;;14.67;8.50;;;8.70;99.90;;;;;;5069911;28;20227;-74
2021/11/15 02:19:40;;;;;;;14.60;8.67;;;8.70;99.90;;;;;;5071147;28;20245;-74
2021/11/15 02:22:05;;;;;;;16.23;8.87;;;8.70;99.90;;;;;;5053585;28;20227;-73
2021/11/15 02:24:31;;;;;;;13.10;8.63;;;8.70;99.90;;;;;;5054283;28;20471;-74
2021/11/15 02:26:57;;;;;;;14.47;8.73;;;8.70;99.90;;;;;;5070520;28;20254;-73
2021/11/15 02:29:23;;;;;;;13.20;7.93;;;8.70;99.90;;;;;;5070548;28;20233;-74
2021/11/15 02:31:48;;;;;;;15.27;8.43;;;8.70;99.90;;;;;;5070625;28;20462;-74
2021/11/15 02:34:14;;;;;;;15.10;8.53;;;8.70;99.90;;;;;;5071352;28;20219;-73
2021/11/15 02:36:40;;;;;;;14.30;8.80;;;8.70;99.90;;;;;;5054317;28;20215;-74
2021/11/15 02:39:07;;;;;;;12.97;8.23;;;8.70;99.90;;;;;;5069253;28;20309;-73
2021/11/15 02:41:32;;;;;;;13.27;7.83;;;8.70;99.90;;;;;;5068956;28;20211;-74
2021/11/15 02:44:01;;;;;;;16.60;8.30;;;8.70;99.90;;;;;;5069859;28;20457;-74
2021/11/15 02:46:28;;;;;;;13.77;8.73;;;8.70;99.90;;;;;;5070300;28;20231;-74
2021/11/15 02:48:54;;;;;;;15.60;9.17;;;8.70;99.90;;;;;;5061204;28;20527;-73
2021/11/15 02:51:20;;;;;;;12.63;7.50;;;8.70;99.90;;;;;;5050023;28;20974;-74
2021/11/15 02:53:46;;;;;;;12.80;9.17;;;8.70;99.90;;;;;;5033661;28;20454;-73
2021/11/15 02:56:12;;;;;;;14.27;8.53;;;8.70;99.90;;;;;;5085227;28;20467;-74
2021/11/15 02:58:39;;;;;;;20.37;8.70;;;8.70;99.90;;;;;;5070704;28;20225;-73
2021/11/15 03:01:12;;;;;;;14.00;8.30;;;8.70;99.90;;;;;;5070273;28;20461;-74
2021/11/15 03:03:40;;;;;;;11.93;7.90;;;8.70;99.90;;;;;;5053846;28;20458;-74
2021/11/15 03:06:05;;;;;;;15.30;8.20;;;8.70;99.90;;;;;;5069846;28;20472;-73
2021/11/15 03:08:32;;;;;;;15.40;9.20;;;8.70;99.90;;;;;;5071047;28;20529;-75
2021/11/15 03:11:03;;;;;;;13.67;8.60;;;8.70;99.90;;;;;;5052745;28;20231;-74
2021/11/15 03:13:41;;;;;;;13.40;8.93;;;8.60;99.90;;;;;;5069958;28;20532;-74
2021/11/15 03:16:08;;;;;;;13.30;9.10;;;8.70;99.90;;;;;;5068346;28;20530;-74
2021/11/15 03:18:36;;;;;;;13.90;8.97;;;8.60;99.90;;;;;;5053137;28;20825;-72
2021/11/15 03:21:14;;;;;;;14.33;8.50;;;8.60;99.90;;;;;;5085548;28;20481;-74
2021/11/15 03:23:43;;;;;;;13.87;8.50;;;8.60;99.90;;;;;;5069376;28;20536;-73
2021/11/15 03:26:09;;;;;;;13.27;8.07;;;8.60;99.90;;;;;;5069363;28;20465;-73
2021/11/15 03:28:38;;;;;;;17.70;9.10;;;8.60;99.90;;;;;;5070150;28;20507;-71
2021/11/15 03:31:17;;;;;;;12.83;8.43;;;8.70;99.90;;;;;;5068445;28;21178;-74
2021/11/15 03:33:43;;;;;;;13.13;8.70;;;8.70;99.90;;;;;;5069333;28;21016;-71
2021/11/15 03:36:09;;;;;;;11.60;8.47;;;8.60;99.90;;;;;;5069268;28;20466;-73
2021/11/15 03:38:35;;;;;;;13.67;8.17;;;8.60;99.90;;;;;;5069195;28;20207;-71
2021/11/15 03:41:02;;;;;;;14.23;8.27;;;8.60;99.90;;;;;;5068453;28;20465;-74
2021/11/15 03:43:28;;;;;;;12.70;7.43;;;8.70;99.90;;;;;;5068499;28;20445;-74
2021/11/15 03:45:54;;;;;;;12.70;8.53;;;8.60;99.90;;;;;;5052581;28;20502;-72
2021/11/15 03:48:21;;;;;;;12.73;7.97;;;8.70;99.90;;;;;;5069295;28;20680;-74
2021/11/15 03:50:48;;;;;;;14.80;8.00;;;8.60;99.90;;;;;;5070862;28;20234;-74
2021/11/15 03:53:14;;;;;;;12.67;8.43;;;8.60;99.90;;;;;;5067650;28;20998;-73
2021/11/15 03:55:41;;;;;;;14.83;7.37;;;8.60;99.90;;;;;;5069683;28;20803;-74
2021/11/15 03:58:08;;;;;;;14.40;8.60;;;8.70;99.90;;;;;;5052373;28;20498;-73
2021/11/15 04:00:39;;;;;;;13.27;7.80;;;8.60;99.90;;;;;;5046036;28;20458;-74
2021/11/15 04:03:10;;;;;;;14.80;7.33;;;8.70;99.90;;;;;;5067398;28;20445;-74
2021/11/15 04:05:38;;;;;;;13.77;7.97;;;8.60;99.90;;;;;;5069550;28;20940;-74
2021/11/15 04:08:08;;;;;;;12.50;7.23;;;8.60;99.90;;;;;;5068062;28;20454;-73
2021/11/15 04:10:43;;;;;;;13.23;7.97;;;8.60;99.90;;;;;;5052376;28;20532;-74
2021/11/15 04:13:25;;;;;;;11.97;7.10;;;8.60;99.90;;;;;;5068474;28;20457;-73
2021/11/15 04:15:55;;;;;;;15.00;7.93;;;8.70;99.90;;;;;;5068470;28;20991;-74
2021/11/15 04:18:24;;;;;;;12.33;8.60;;;8.70;99.90;;;;;;5068876;28;21024;-74
2021/11/15 04:20:51;;;;;;;13.30;7.80;;;8.60;99.90;;;;;;5069420;28;20469;-74
2021/11/15 04:23:17;;;;;;;12.90;7.30;;;8.60;99.90;;;;;;5068822;28;20448;-74
2021/11/15 04:25:43;;;;;;;18.53;9.00;;;8.60;99.90;;;;;;5068906;28;20450;-74
2021/11/15 04:28:09;;;;;;;14.30;7.67;;;8.60;99.90;;;;;;5068930;28;20237;-73
2021/11/15 04:30:35;;;;;;;15.00;8.47;;;8.60;99.90;;;;;;5068904;28;20223;-74
2021/11/15 04:33:03;;;;;;;14.67;7.97;;;8.60;99.90;;;;;;5068300;28;20529;-73
2021/11/15 04:35:29;;;;;;;16.10;8.67;;;8.60;99.90;;;;;;5069135;28;20222;-74
2021/11/15 04:37:55;;;;;;;17.57;9.70;;;8.70;99.90;;;;;;5068913;28;20896;-73
2021/11/15 04:40:21;;;;;;;15.00;9.07;;;8.60;99.90;;;;;;5066945;28;20501;-73
2021/11/15 04:42:46;;;;;;;11.03;7.27;;;8.70;99.90;;;;;;5048515;28;20481;-74
2021/11/15 04:45:13;;;;;;;13.70;8.90;;;8.70;99.90;;;;;;5048656;28;20311;-74
2021/11/15 04:47:39;;;;;;;16.27;9.00;;;8.60;99.90;;;;;;5038562;28;20671;-73
2021/11/15 04:50:07;;;;;;;13.60;7.03;;;8.60;99.90;;;;;;5068141;28;20552;-73
2021/11/15 04:52:33;;;;;;;11.10;7.93;;;8.60;99.90;;;;;;5052044;28;20526;-73
2021/11/15 04:54:58;;;;;;;11.77;7.13;;;8.60;99.90;;;;;;5067951;28;20540;-73
2021/11/15 04:57:25;;;;;;;10.90;6.73;;;8.60;99.90;;;;;;5068532;28;20223;-74
2021/11/15 04:59:52;;;;;;;14.10;8.10;;;8.60;99.90;;;;;;5068744;28;20764;-74
2021/11/15 05:02:17;;;;;;;13.60;8.27;;;8.60;99.90;;;;;;5067555;28;20445;-73
2021/11/15 05:04:43;;;;;;;13.70;7.50;;;8.60;99.90;;;;;;5073357;28;20449;-72
2021/11/15 05:07:09;;;;;;;11.47;6.80;;;8.60;99.90;;;;;;5072399;28;20665;-75
2021/11/15 05:09:35;;;;;;;13.53;8.20;;;8.60;99.90;;;;;;5071843;28;20532;-74
2021/11/15 05:12:04;;;;;;;11.53;6.80;;;8.60;99.90;;;;;;5071184;28;20587;-74
2021/11/15 05:14:30;;;;;;;13.07;8.10;;;8.60;99.90;;;;;;5073314;28;20982;-74
2021/11/15 05:16:56;;;;;;;10.20;6.70;;;8.60;99.90;;;;;;5069141;28;20465;-74
2021/11/15 05:19:22;;;;;;;11.50;7.03;;;8.60;99.90;;;;;;5053356;28;20219;-74
2021/11/15 05:21:48;;;;;;;14.90;8.53;;;8.60;99.90;;;;;;5070185;28;20356;-74
2021/11/15 05:24:14;;;;;;;13.70;7.40;;;8.60;99.90;;;;;;5067212;28;20510;-74
2021/11/15 05:26:40;;;;;;;14.53;8.33;;;8.60;99.90;;;;;;5069972;28;20504;-74
2021/11/15 05:29:06;;;;;;;16.03;8.63;;;8.60;99.90;;;;;;5068102;28;20211;-74
2021/11/15 05:31:34;;;;;;;12.73;7.63;;;8.60;99.90;;;;;;5070684;28;20727;-74
2021/11/15 05:34:03;;;;;;;12.63;6.83;;;8.60;99.90;;;;;;5067973;28;20229;-74
2021/11/15 05:36:29;;;;;;;13.93;7.87;;;8.60;99.90;;;;;;5070216;28;20453;-74
2021/11/15 05:38:55;;;;;;;10.77;7.00;;;8.60;99.90;;;;;;5069090;28;20476;-73
2021/11/15 05:41:21;;;;;;;14.33;8.03;;;8.60;99.90;;;;;;5068987;28;20445;-74
2021/11/15 05:43:47;;;;;;;11.87;8.07;;;8.60;99.90;;;;;;5069050;28;20769;-74
2021/11/15 05:46:12;;;;;;;12.97;7.33;;;8.60;99.90;;;;;;5048063;28;20294;-74
2021/11/15 05:48:38;;;;;;;11.53;7.63;;;8.60;99.90;;;;;;5049836;28;20244;-74
2021/11/15 05:51:04;;;;;;;16.63;8.60;;;8.60;99.90;;;;;;5031386;28;20232;-74
2021/11/15 05:53:30;;;;;;;16.40;8.07;;;8.50;99.90;;;;;;5061492;28;20227;-73
2021/11/15 05:55:56;;;;;;;11.30;7.47;;;8.60;99.90;;;;;;5069412;28;20231;-74
2021/11/15 05:58:21;;;;;;;15.10;8.17;;;8.60;99.90;;;;;;5069153;28;20511;-74
2021/11/15 06:00:48;;;;;;;14.67;8.20;;;8.60;99.90;;;;;;5069989;28;20983;-74
2021/11/15 06:03:15;;;;;;;13.70;7.70;;;8.60;99.90;;;;;;5068755;28;20303;-74
2021/11/15 06:05:41;;;;;;;15.63;8.03;;;8.60;99.90;;;;;;5068390;28;20502;-74
2021/11/15 06:08:07;;;;;;;12.00;7.10;;;8.50;99.90;;;;;;5068428;28;20488;-73
2021/11/15 06:10:32;;;;;;;16.80;8.10;;;8.60;99.90;;;;;;5068748;28;20234;-75
2021/11/15 06:12:58;;;;;;;15.70;7.83;;;8.50;99.90;;;;;;5066878;28;20469;-73
2021/11/15 06:15:24;;;;;;;13.77;7.73;;;8.50;99.90;;;;;;5051452;28;20218;-74
2021/11/15 06:17:51;;;;;;;11.50;7.10;;;8.60;99.90;;;;;;5068106;28;20227;-73
2021/11/15 06:20:17;;;;;;;13.93;7.67;;;8.50;99.90;;;;;;5050715;28;20317;-73
2021/11/15 06:22:44;;;;;;;12.93;8.30;;;8.60;99.90;;;;;;5068583;28;21062;-73
2021/11/15 06:25:12;;;;;;;15.53;7.90;;;8.60;99.90;;;;;;5063958;28;20450;-75
2021/11/15 06:27:39;;;;;;;14.87;8.50;;;8.60;99.90;;;;;;5052070;28;20457;-73
2021/11/15 06:30:07;;;;;;;14.80;7.73;;;8.60;99.90;;;;;;5066530;28;20450;-74
2021/11/15 06:32:33;;;;;;;13.40;7.27;;;8.60;99.90;;;;;;5051843;28;20537;-72
2021/11/15 06:34:59;;;;;;;11.27;7.20;;;8.50;99.90;;;;;;5069990;28;20921;-75
2021/11/15 06:37:26;;;;;;;13.90;7.03;;;8.60;99.90;;;;;;5105977;28;20463;-74
2021/11/15 06:39:51;;;;;;;16.33;8.37;;;8.60;99.90;;;;;;5106152;28;20301;-74
2021/11/15 06:42:17;;;;;;;11.27;7.70;;;8.50;99.90;;;;;;5084634;28;20535;-73
2021/11/15 06:44:43;;;;;;;10.90;7.30;;;8.60;99.90;;;;;;5085625;28;20689;-74
2021/11/15 06:47:09;;;;;;;16.63;8.30;;;8.60;99.90;;;;;;5066532;28;20230;-74
2021/11/15 06:49:35;;;;;;;16.83;8.17;;;8.50;99.90;;;;;;5068887;28;20223;-74
2021/11/15 06:52:01;;;;;;;15.47;9.00;;;8.50;99.90;;;;;;5066614;28;20561;-73
2021/11/15 06:54:26;;;;;;;14.10;6.80;;;8.50;99.90;;;;;;5068218;28;20762;-73
2021/11/15 06:56:52;;;;;;;18.13;9.87;;;8.50;99.90;;;;;;5084540;28;20235;-74
2021/11/15 06:59:19;;;;;;;14.00;7.20;;;8.50;99.90;;;;;;5066700;28;20242;-73
2021/11/15 07:01:45;;;;;;;12.90;7.30;;;8.50;99.90;;;;;;5068482;28;20284;-73
2021/11/15 07:04:11;;;;;;;13.30;7.80;;;8.50;99.90;;;;;;5066509;28;20991;-74
2021/11/15 07:06:40;;;;;;;14.17;8.27;;;8.50;99.90;;;;;;5050573;28;20235;-74
2021/11/15 07:09:09;;;;;;;11.17;6.70;;;8.50;99.90;;;;;;5066511;28;20598;-74
2021/11/15 07:11:36;;;;;;;14.03;7.90;;;8.50;99.90;;;;;;5067054;28;20473;-74
2021/11/15 07:14:03;;;;;;;17.70;8.77;;;8.50;99.90;;;;;;5066153;28;20545;-75
2021/11/15 07:16:29;;;;;;;14.87;9.33;;;8.50;99.90;;;;;;5067397;28;20974;-75
2021/11/15 07:18:55;;;;;;;15.03;7.33;;;8.60;99.90;;;;;;5067974;28;20599;-74
2021/11/15 07:21:21;;;;;;;14.73;8.33;;;8.50;99.90;;;;;;5066279;28;20600;-74
2021/11/15 07:23:48;;;;;;;12.70;7.73;;;8.50;99.90;;;;;;5067631;28;20223;-75
2021/11/15 07:26:14;;;;;;;15.87;8.20;;;8.50;99.90;;;;;;5065725;28;20466;-75
2021/11/15 07:28:40;;;;;;;17.93;9.37;;;8.50;99.90;;;;;;5067761;28;20843;-73
2021/11/15 07:31:06;;;;;;;16.60;9.23;;;8.50;99.90;;;;;;5064984;28;20223;-75
2021/11/15 07:33:32;;;;;;;11.30;6.90;;;8.50;99.90;;;;;;5066589;28;21001;-75
2021/11/15 07:35:57;;;;;;;11.20;6.90;;;8.50;99.90;;;;;;5066134;28;20223;-75
2021/11/15 07:38:23;;;;;;;13.77;8.10;;;8.50;99.90;;;;;;5067002;28;20225;-75
2021/11/15 07:40:49;;;;;;;15.43;8.70;;;8.50;99.90;;;;;;5067569;28;20257;-75
2021/11/15 07:43:15;;;;;;;17.10;8.97;;;8.50;99.90;;;;;;5065571;28;20576;-74
2021/11/15 07:45:42;;;;;;;14.10;7.30;;;8.50;99.90;;;;;;5067488;28;21030;-75
2021/11/15 07:48:08;;;;;;;15.63;8.90;;;8.50;99.90;;;;;;5064968;28;20309;-73
2021/11/15 07:50:34;;;;;;;12.33;7.70;;;8.50;99.90;;;;;;5067341;28;20556;-74
2021/11/15 07:53:00;;;;;;;16.90;8.60;;;8.50;99.90;;;;;;5067060;28;20269;-74
2021/11/15 07:55:25;;;;;;;14.50;8.33;;;8.50;99.90;;;;;;5067328;28;20462;-74
2021/11/15 07:57:51;;;;;;;12.83;7.40;;;8.50;99.90;;;;;;5066828;28;20231;-74
2021/11/15 08:00:21;;;;;;;15.77;7.97;;;8.50;99.90;;;;;;5065728;28;20302;-74
2021/11/15 08:02:48;;;;;;;16.90;7.73;;;8.50;99.90;;;;;;5066299;28;20258;-74
2021/11/15 08:05:16;;;;;;;12.37;8.00;;;8.50;99.90;;;;;;5063830;28;20458;-74
2021/11/15 08:07:42;;;;;;;13.27;7.40;;;8.50;99.90;;;;;;5067206;28;20518;-74
2021/11/15 08:10:11;;;;;;;16.23;8.77;;;8.60;99.90;;;;;;5064649;28;20905;-75
2021/11/15 08:12:40;;;;;;;10.27;6.90;;;8.50;99.90;;;;;;5067571;28;20867;-74
2021/11/15 08:15:09;;;;;;;13.13;7.27;;;8.60;99.90;;;;;;5048373;28;20480;-74
2021/11/15 08:17:40;;;;;;;12.57;8.30;;;8.50;99.90;;;;;;5066769;28;20548;-75
2021/11/15 08:20:10;;;;;;;12.03;7.20;;;8.60;99.90;;;;;;5064860;28;20926;-74
2021/11/15 08:22:35;;;;;;;10.30;6.90;;;8.50;99.90;;;;;;5066597;28;20885;-75
2021/11/15 08:25:10;;;;;;;11.10;7.60;;;8.60;99.90;;;;;;5065656;28;20488;-75
2021/11/15 08:27:36;;;;;;;13.00;6.50;;;8.60;99.90;;;;;;5049916;28;20226;-72
2021/11/15 08:30:03;;;;;;;13.87;8.57;;;8.50;99.90;;;;;;5065238;28;20545;-75
2021/11/15 08:32:28;;;;;;;12.47;7.30;;;8.60;99.90;;;;;;5067187;28;20238;-75
2021/11/15 08:34:58;;;;;;;16.67;8.47;;;8.50;99.90;;;;;;5066467;28;20821;-74
2021/11/15 08:37:24;;;;;;;13.80;8.10;;;8.50;99.90;;;;;;5049255;28;20223;-74
2021/11/15 08:39:50;;;;;;;10.27;7.00;;;8.60;99.90;;;;;;5066260;28;20986;-74
2021/11/15 08:42:16;;;;;;;10.07;6.13;;;8.50;99.90;;;;;;5064876;28;20472;-74
2021/11/15 08:44:51;;;;;;;12.73;7.50;;;8.60;99.90;;;;;;5066234;28;20215;-74
2021/11/15 08:47:17;;;;;;;10.07;6.40;;;8.60;99.90;;;;;;5057267;28;20545;-74
2021/11/15 08:49:43;;;;;;;12.70;6.20;;;8.60;99.90;;;;;;5065797;28;20503;-75
2021/11/15 08:52:08;;;;;;;10.77;6.77;;;8.60;99.90;;;;;;5064627;28;20346;-75
2021/11/15 08:54:34;;;;;;;19.00;7.60;;;8.60;99.90;;;;;;5066263;28;20219;-74
2021/11/15 08:57:04;;;;;;;16.33;7.23;;;8.60;99.90;;;;;;5047000;28;20294;-72
2021/11/15 08:59:30;;;;;;;12.90;7.53;;;8.60;99.90;;;;;;5060146;28;20468;-74
2021/11/15 09:01:56;;;;;;;13.10;7.10;;;8.60;99.90;;;;;;5065114;28;20830;-74
2021/11/15 09:04:22;;;;;;;11.93;6.37;;;8.60;99.90;;;;;;5057892;28;20594;-74
2021/11/15 09:06:48;;;;;;;12.10;6.93;;;8.60;99.90;;;;;;5063253;28;20481;-74
2021/11/15 09:09:16;;;;;;;11.40;6.70;;;8.60;99.90;;;;;;5027919;28;21045;-74
2021/11/15 09:11:50;;;;;;;12.53;6.83;;;8.60;99.90;;;;;;5053032;28;20484;-71
2021/11/15 09:14:19;;;;;;;13.80;7.70;;;8.60;99.90;;;;;;5052213;28;20536;-74
2021/11/15 09:16:46;;;;;;;10.13;5.87;;;8.60;99.90;;;;;;5052006;28;20577;-73
2021/11/15 09:19:14;;;;;;;9.30;5.47;;;8.60;99.90;;;;;;5036245;28;20478;-74
2021/11/15 09:21:40;;;;;;;8.87;5.47;;;8.50;99.90;;;;;;5045897;28;20469;-74
2021/11/15 09:24:06;;;;;;;8.13;6.13;;;8.50;99.90;;;;;;5051464;28;20545;-73
2021/11/15 09:26:33;;;;;;;10.60;6.40;;;8.60;99.90;;;;;;5037549;28;20461;-74
2021/11/15 09:29:00;;;;;;;8.27;5.40;;;8.60;99.90;;;;;;5056909;28;20470;-74
2021/11/15 09:31:27;;;;;;;11.27;5.40;;;8.50;99.90;;;;;;5058791;28;20462;-73
2021/11/15 09:33:53;;;;;;;10.67;6.37;;;8.50;99.90;;;;;;5058761;28;20489;-74
2021/11/15 09:36:24;;;;;;;11.47;6.67;;;8.50;99.90;;;;;;5055896;28;20461;-74
2021/11/15 09:38:52;;;;;;;9.80;6.40;;;8.60;99.90;;;;;;5065450;28;20461;-74
2021/11/15 09:41:18;;;;;;;9.70;5.70;;;8.50;99.90;;;;;;5028909;28;20454;-74
2021/11/15 09:43:43;;;;;;;10.93;5.80;;;8.60;99.90;;;;;;5055825;28;20470;-74
2021/11/15 09:46:12;;;;;;;9.07;6.47;;;8.50;99.90;;;;;;5034912;28;20223;-73
2021/11/15 09:48:42;;;;;;;8.60;5.07;;;8.50;99.90;;;;;;5063096;28;20226;-71
2021/11/15 09:51:08;;;;;;;10.10;6.07;;;8.60;99.90;;;;;;5049432;28;20470;-73
2021/11/15 09:53:35;;;;;;;10.80;6.40;;;8.50;99.90;;;;;;5060450;28;20456;-73
2021/11/15 09:56:03;;;;;;;11.07;6.43;;;8.50;99.90;;;;;;5063543;28;20534;-73
2021/11/15 09:58:29;;;;;;;7.07;5.23;;;8.50;99.90;;;;;;5049773;28;20458;-74
2021/11/15 10:00:56;;;;;;;9.20;6.23;;;8.50;99.90;;;;;;5063098;28;20485;-74
2021/11/15 10:03:22;;;;;;;10.60;6.10;;;8.50;99.90;;;;;;5060116;28;20461;-74
2021/11/15 10:05:48;;;;;;;8.73;6.33;;;8.50;99.90;;;;;;5069372;28;20457;-74
2021/11/15 10:08:14;;;;;;;9.70;6.70;;;8.50;99.90;;;;;;5067543;28;20465;-74
2021/11/15 10:10:47;;;;;;;10.70;6.23;;;8.50;99.90;;;;;;5053557;28;20728;-71
2021/11/15 10:13:12;;;;;;;10.63;5.63;;;8.50;99.90;;;;;;5059781;28;20493;-74
2021/11/15 10:15:45;;;;;;;9.20;5.70;;;8.50;99.90;;;;;;5061573;28;20526;-74
2021/11/15 10:18:13;;;;;;;10.53;5.97;;;8.50;99.90;;;;;;5037381;28;20222;-73
2021/11/15 10:20:52;;;;;;;8.83;5.77;;;8.50;99.90;;;;;;5063789;28;20993;-74
2021/11/15 10:23:36;;;;;;;7.40;5.63;;;8.50;99.90;;;;;;5059356;28;20453;-74
2021/11/15 10:26:15;;;;;;;9.13;5.80;;;8.50;99.90;;;;;;5059412;28;20971;-74
2021/11/15 10:28:41;;;;;;;9.37;5.80;;;8.50;99.90;;;;;;5039955;28;20492;-74
2021/11/15 10:31:47;;;;;;;7.90;4.87;;;8.50;99.90;;;;;;5047333;28;20473;-74
2021/11/15 10:34:23;;;;;;;10.97;5.87;;;8.50;99.90;;;;;;5048960;28;20489;-73
2021/11/15 10:37:19;;;;;;;6.87;5.07;;;8.50;99.90;;;;;;5062719;28;20468;-73
2021/11/15 10:39:53;;;;;;;11.10;5.63;;;8.50;99.90;;;;;;5061006;28;20866;-74
2021/11/15 10:42:30;;;;;;;7.27;4.80;;;8.50;99.90;;;;;;5064583;28;20459;-74
2021/11/15 10:44:59;;;;;;;9.47;5.40;;;8.50;99.90;;;;;;5047489;28;20462;-74
2021/11/15 10:47:30;;;;;;;7.37;5.30;;;8.50;99.90;;;;;;5047740;28;20442;-74
2021/11/15 10:52:55;;;;;;;8.10;5.00;;;8.50;99.90;;;;;;5061100;28;20553;-74
2021/11/15 10:55:21;;;;;;;8.20;5.33;;;8.50;99.90;;;;;;5029130;28;20460;-74
2021/11/15 10:57:48;;;;;;;10.60;6.00;;;8.50;99.90;;;;;;5048803;28;20469;-74
2021/11/15 11:00:22;;;;;;;8.23;4.87;;;8.50;99.90;;;;;;5060480;28;20219;-74
2021/11/15 11:02:49;;;;;;;8.70;5.87;;;8.50;99.90;;;;;;5060938;28;20443;-74
2021/11/15 11:05:19;;;;;;;8.20;5.53;;;8.50;99.90;;;;;;5043705;28;20621;-74
2021/11/15 11:08:07;;;;;;;10.00;5.20;;;8.50;99.90;;;;;;5038593;28;20462;-74
2021/11/15 11:10:42;;;;;;;6.17;4.50;;;8.50;99.90;;;;;;5038166;28;20490;-74
2021/11/15 11:13:08;;;;;;;11.97;5.13;;;8.50;99.90;;;;;;5046060;28;20586;-74
2021/11/15 11:18:11;;;;;;;5.67;4.07;;;8.50;99.90;;;;;;5046637;28;20459;-74
2021/11/15 11:25:56;;;;;;;6.33;4.37;;;8.50;99.90;;;;;;5060438;28;20473;-73
2021/11/15 11:28:31;;;;;;;5.93;4.50;;;8.60;99.90;;;;;;5048700;28;20493;-74
2021/11/15 11:30:59;;;;;;;7.37;5.07;;;8.60;99.90;;;;;;5026649;28;20539;-75
2021/11/15 11:33:28;;;;;;;6.80;4.90;;;8.50;99.90;;;;;;5035607;28;20457;-74
2021/11/15 11:35:55;;;;;;;6.67;5.07;;;8.50;99.90;;;;;;5062059;28;20549;-74
2021/11/15 11:38:21;;;;;;;6.30;4.60;;;8.50;99.90;;;;;;5054236;28;20503;-74
2021/11/15 11:40:48;;;;;;;10.67;6.30;;;8.50;99.90;;;;;;5046722;28;20462;-74
2021/11/15 11:43:14;;;;;;;7.00;5.43;;;8.50;99.90;;;;;;5059307;28;20462;-74
2021/11/15 11:45:41;;;;;;;7.50;5.03;;;8.50;99.90;;;;;;5044613;28;20469;-73
2021/11/15 11:48:07;;;;;;;6.33;4.87;;;8.50;99.90;;;;;;5046121;28;20489;-73
2021/11/15 11:50:34;;;;;;;7.00;4.60;;;8.50;99.90;;;;;;5029745;28;20485;-74
2021/11/15 11:53:04;;;;;;;7.00;4.97;;;8.50;99.90;;;;;;5041910;28;20223;-73
2021/11/15 11:55:33;;;;;;;8.23;5.87;;;8.50;99.90;;;;;;5040442;28;20469;-74
2021/11/15 11:58:24;;;;;;;8.30;5.40;;;8.50;99.90;;;;;;5046393;28;20532;-74
2021/11/15 12:00:59;;;;;;;6.33;4.63;;;8.50;99.90;;;;;;5034207;28;20466;-73
2021/11/15 12:03:29;;;;;;;8.73;4.83;;;8.50;99.90;;;;;;5041738;28;20491;-73
2021/11/15 12:06:27;;;;;;;7.47;5.73;;;8.50;99.90;;;;;;5051711;28;20877;-74
2021/11/15 12:08:58;;;;;;;10.23;5.83;;;8.50;99.90;;;;;;5043123;28;20488;-74
2021/11/15 12:11:35;;;;;;;10.33;6.43;;;8.50;99.90;;;;;;5045024;28;20476;-74
2021/11/15 12:14:02;;;;;;;9.00;5.60;;;8.50;99.90;;;;;;5054940;28;20974;-74
2021/11/15 12:16:53;;;;;;;9.30;5.80;;;8.60;99.90;;;;;;5028405;28;20470;-74
2021/11/15 12:19:27;;;;;;;13.47;6.80;;;8.50;99.90;;;;;;5073595;28;20472;-74
2021/11/15 12:22:16;;;;;;;8.40;5.60;;;8.60;99.90;;;;;;5061047;28;20548;-75
2021/11/15 12:25:04;;;;;;;7.80;5.73;;;8.60;99.90;;;;;;5045530;28;20457;-74
2021/11/15 12:27:41;;;;;;;8.23;5.40;;;8.60;99.90;;;;;;5041444;28;20450;-74
2021/11/15 12:30:18;;;;;;;7.87;5.50;;;8.50;99.90;;;;;;5038784;28;20588;-74
2021/11/15 12:33:08;;;;;;;11.80;6.53;;;8.50;99.90;;;;;;5046938;28;20465;-72
2021/11/15 12:36:03;;;;;;;11.27;7.20;;;8.50;99.90;;;;;;5047423;28;20476;-73
2021/11/15 12:38:49;;;;;;;11.23;7.20;;;8.50;99.90;;;;;;5057024;28;20568;-74
2021/11/15 12:41:25;;;;;;;7.20;5.10;;;8.60;99.90;;;;;;5049737;28;20479;-73
2021/11/15 12:44:01;;;;;;;7.00;5.80;;;8.60;99.90;;;;;;5052343;28;20466;-74
2021/11/15 12:46:56;;;;;;;8.67;5.73;;;8.50;99.90;;;;;;5043744;28;20541;-74
2021/11/15 12:49:24;;;;;;;6.37;4.63;;;8.50;99.90;;;;;;5028586;28;20453;-74
2021/11/15 12:52:11;;;;;;;6.70;4.63;;;8.60;99.90;;;;;;5032334;28;20499;-74
2021/11/15 12:54:37;;;;;;;8.30;5.40;;;8.50;99.90;;;;;;5063185;28;20461;-73
2021/11/15 12:57:05;;;;;;;9.20;4.40;;;8.60;99.90;;;;;;5062314;28;20469;-74
2021/11/15 12:59:40;;;;;;;7.07;5.40;;;8.50;99.90;;;;;;5048842;28;20532;-74
2021/11/15 13:02:06;;;;;;;7.30;4.37;;;8.50;99.90;;;;;;5042091;28;20473;-73
2021/11/15 13:04:33;;;;;;;9.47;5.10;;;8.50;99.90;;;;;;5059181;28;20899;-74